Time;durP1;ratioP1;P1;durP2;ratioP2;P2;SDS_P1;SDS_P2;PMS_P1;PMS_P2;Temp;Humidity;BMP_temperature;BMP_pressure;BME280_temperature;BME280_humidity;BME280_pressure;Samples;Min_cycle;Max_cycle;Signal;HPM_P1;HPM_P2
2022/05/07 00:02:17;;;;;;;33.97;30.33;;;8.20;99.90;;;;;;5044992;28;20041;-75
2022/05/07 00:04:44;;;;;;;33.05;29.48;;;8.30;99.90;;;;;;5027980;28;20115;-74
2022/05/07 00:07:11;;;;;;;37.42;30.88;;;8.20;99.90;;;;;;5016988;28;20045;-74
2022/05/07 00:09:38;;;;;;;36.10;32.25;;;8.20;99.90;;;;;;5023258;28;20037;-75
2022/05/07 00:12:06;;;;;;;35.25;31.42;;;8.30;99.90;;;;;;5022570;28;20697;-75
2022/05/07 00:14:33;;;;;;;33.47;29.90;;;8.20;99.90;;;;;;5027878;28;20057;-75
2022/05/07 00:19:46;;;;;;;37.50;31.45;;;8.30;99.90;;;;;;5006591;28;20119;-75
2022/05/07 00:22:14;;;;;;;33.65;29.88;;;8.20;99.90;;;;;;5012013;28;20102;-75
2022/05/07 00:24:41;;;;;;;32.72;29.17;;;8.10;99.90;;;;;;5040808;28;20041;-75
2022/05/07 00:27:08;;;;;;;33.33;29.70;;;8.00;99.90;;;;;;5006425;28;20045;-75
2022/05/07 00:29:35;;;;;;;34.42;31.00;;;8.10;99.90;;;;;;4991534;28;20103;-75
2022/05/07 00:32:03;;;;;;;36.15;32.50;;;8.00;99.90;;;;;;5007152;28;20041;-75
2022/05/07 00:34:30;;;;;;;35.90;31.83;;;8.10;99.90;;;;;;5023295;28;20624;-74
2022/05/07 00:36:58;;;;;;;36.15;32.28;;;8.00;99.90;;;;;;5023940;28;20048;-75
2022/05/07 00:39:25;;;;;;;39.45;32.45;;;7.80;99.90;;;;;;5030194;28;20705;-75
2022/05/07 00:41:53;;;;;;;41.97;32.05;;;7.60;99.90;;;;;;5032343;28;20147;-75
2022/05/07 00:44:21;;;;;;;38.92;31.85;;;7.70;99.90;;;;;;5023448;28;20905;-75
2022/05/07 00:46:49;;;;;;;38.80;32.55;;;7.80;99.90;;;;;;5044181;28;20440;-75
2022/05/07 00:49:17;;;;;;;35.95;29.52;;;8.00;99.90;;;;;;5027254;28;20473;-75
2022/05/07 00:51:43;;;;;;;38.65;31.90;;;8.00;99.90;;;;;;5024029;28;20136;-75
2022/05/07 00:54:11;;;;;;;46.38;34.38;;;7.90;99.90;;;;;;5010215;28;20080;-75
2022/05/07 00:56:39;;;;;;;53.17;34.15;;;7.80;99.90;;;;;;5022956;28;20501;-75
2022/05/07 00:59:07;;;;;;;43.80;31.90;;;7.80;99.90;;;;;;5007655;28;20060;-75
2022/05/07 01:01:34;;;;;;;38.42;28.63;;;7.80;99.90;;;;;;5005682;28;20042;-75
2022/05/07 01:04:02;;;;;;;41.85;31.77;;;7.70;99.90;;;;;;5024742;28;20098;-74
2022/05/07 01:06:31;;;;;;;34.90;29.35;;;7.70;99.90;;;;;;5032512;28;20097;-75
2022/05/07 01:08:58;;;;;;;38.72;30.00;;;7.50;99.90;;;;;;5036082;28;20053;-75
2022/05/07 01:11:27;;;;;;;38.33;30.52;;;7.60;99.90;;;;;;5028016;28;20210;-75
2022/05/07 01:13:57;;;;;;;41.00;30.77;;;7.50;99.90;;;;;;5022895;28;20567;-74
2022/05/07 01:16:27;;;;;;;33.88;30.10;;;7.50;99.90;;;;;;5028371;28;20072;-74
2022/05/07 01:18:54;;;;;;;36.92;31.58;;;7.60;99.90;;;;;;5026260;28;20118;-74
2022/05/07 01:21:20;;;;;;;42.00;32.00;;;7.60;99.90;;;;;;5020879;28;20546;-74
2022/05/07 01:23:49;;;;;;;39.40;31.60;;;7.50;99.90;;;;;;5016072;28;20546;-74
2022/05/07 01:26:21;;;;;;;40.47;33.40;;;7.60;99.90;;;;;;5022134;28;20049;-74
2022/05/07 01:28:49;;;;;;;39.88;33.80;;;7.50;99.90;;;;;;5019516;28;20053;-74
2022/05/07 01:31:16;;;;;;;40.20;33.10;;;7.30;99.90;;;;;;5025871;28;20144;-74
2022/05/07 01:33:43;;;;;;;37.50;29.73;;;7.30;99.90;;;;;;5026529;28;20147;-74
2022/05/07 01:36:18;;;;;;;39.28;32.17;;;7.30;99.90;;;;;;5025945;28;20053;-74
2022/05/07 01:38:51;;;;;;;41.75;33.70;;;7.20;99.90;;;;;;5027082;28;20060;-74
2022/05/07 01:41:18;;;;;;;46.45;33.78;;;7.20;99.90;;;;;;5047113;28;20076;-75
2022/05/07 01:43:47;;;;;;;42.80;33.10;;;7.30;99.90;;;;;;5021899;28;20127;-74
2022/05/07 01:49:03;;;;;;;40.08;32.03;;;7.10;99.90;;;;;;5026326;28;20088;-74
2022/05/07 01:51:30;;;;;;;40.33;32.92;;;7.10;99.90;;;;;;5027543;28;20669;-74
2022/05/07 01:53:58;;;;;;;40.80;32.05;;;7.10;99.90;;;;;;5030294;28;20053;-74
2022/05/07 01:56:25;;;;;;;39.85;32.70;;;7.00;99.90;;;;;;5031117;28;20677;-74
2022/05/07 01:58:52;;;;;;;44.80;34.53;;;6.90;99.90;;;;;;5031578;28;20163;-74
2022/05/07 02:01:20;;;;;;;37.38;33.17;;;6.90;99.90;;;;;;5022976;28;20044;-74
2022/05/07 02:03:47;;;;;;;46.28;34.60;;;7.00;99.90;;;;;;5025361;28;20046;-74
2022/05/07 02:06:19;;;;;;;45.58;34.85;;;7.10;99.90;;;;;;5027542;28;20056;-74
2022/05/07 02:08:47;;;;;;;38.55;32.35;;;7.20;99.90;;;;;;5013553;28;20110;-74
2022/05/07 02:11:19;;;;;;;45.47;33.88;;;7.20;99.90;;;;;;5020653;28;20042;-74
2022/05/07 02:13:46;;;;;;;45.10;34.78;;;7.10;99.90;;;;;;5028356;28;20059;-74
2022/05/07 02:16:13;;;;;;;47.45;35.75;;;7.10;99.90;;;;;;5029515;28;20091;-74
2022/05/07 02:18:42;;;;;;;47.38;35.17;;;7.20;99.90;;;;;;5027333;28;20147;-74
2022/05/07 02:21:09;;;;;;;48.17;34.33;;;7.20;99.90;;;;;;4993353;28;20061;-74
2022/05/07 02:23:36;;;;;;;50.53;34.05;;;7.20;99.90;;;;;;5008301;28;20045;-74
2022/05/07 02:26:03;;;;;;;57.00;38.10;;;7.20;99.90;;;;;;5025472;28;20100;-74
2022/05/07 02:28:30;;;;;;;45.88;34.63;;;7.10;99.90;;;;;;5028109;28;20050;-75
2022/05/07 02:30:56;;;;;;;42.30;33.05;;;7.00;99.90;;;;;;5004329;28;20052;-75
2022/05/07 02:33:25;;;;;;;49.63;34.65;;;6.90;99.90;;;;;;5028639;28;20041;-75
2022/05/07 02:35:51;;;;;;;49.08;36.65;;;6.90;99.90;;;;;;5023269;28;20506;-75
2022/05/07 02:38:18;;;;;;;47.38;32.70;;;6.80;99.90;;;;;;5029243;28;20067;-75
2022/05/07 02:43:37;;;;;;;42.65;32.08;;;6.80;99.90;;;;;;5028762;28;20091;-75
2022/05/07 02:46:10;;;;;;;42.90;34.35;;;6.80;99.90;;;;;;5013861;28;20041;-75
2022/05/07 02:48:39;;;;;;;42.15;33.95;;;7.00;99.90;;;;;;5034248;28;20045;-75
2022/05/07 02:51:08;;;;;;;52.05;36.92;;;7.00;99.90;;;;;;5028226;28;20529;-75
2022/05/07 02:53:35;;;;;;;49.97;36.50;;;6.90;99.90;;;;;;5028346;28;20068;-75
2022/05/07 02:56:02;;;;;;;44.42;34.45;;;7.00;99.90;;;;;;5028233;28;20053;-75
2022/05/07 02:58:28;;;;;;;49.58;35.33;;;7.10;99.90;;;;;;5029057;28;20052;-74
2022/05/07 03:00:55;;;;;;;57.58;38.47;;;7.10;99.90;;;;;;5039055;28;20140;-75
2022/05/07 03:03:22;;;;;;;49.30;35.85;;;7.10;99.90;;;;;;5015054;28;20053;-75
2022/05/07 03:05:54;;;;;;;56.40;37.08;;;7.20;99.90;;;;;;5008826;28;20293;-75
2022/05/07 03:08:21;;;;;;;52.67;37.40;;;7.20;99.90;;;;;;5010024;28;20116;-75
2022/05/07 03:10:48;;;;;;;50.03;35.95;;;7.20;99.90;;;;;;5053500;28;20387;-75
2022/05/07 03:13:17;;;;;;;51.10;37.40;;;7.10;99.90;;;;;;5028228;28;20044;-75
2022/05/07 03:15:44;;;;;;;46.78;35.88;;;7.20;99.90;;;;;;5046465;28;20075;-75
2022/05/07 03:18:13;;;;;;;54.10;38.25;;;7.20;99.90;;;;;;5012921;28;20084;-75
2022/05/07 03:20:41;;;;;;;51.72;37.53;;;7.30;99.90;;;;;;5026464;28;20410;-74
2022/05/07 03:23:13;;;;;;;55.00;38.75;;;7.30;99.90;;;;;;5008061;28;20070;-75
2022/05/07 03:25:40;;;;;;;49.50;37.17;;;7.40;99.90;;;;;;5005750;28;20060;-74
2022/05/07 03:28:14;;;;;;;60.30;40.10;;;7.40;99.90;;;;;;5009839;28;20057;-78
2022/05/07 03:30:41;;;;;;;51.67;37.55;;;7.50;99.90;;;;;;4973847;28;20374;-71
2022/05/07 03:33:08;;;;;;;61.58;38.38;;;7.50;99.90;;;;;;4993724;28;20303;-71
2022/05/07 03:35:39;;;;;;;52.90;39.25;;;7.50;99.90;;;;;;5011289;28;20501;-71
2022/05/07 03:38:06;;;;;;;59.05;40.70;;;7.60;99.90;;;;;;4998579;28;20069;-71
2022/05/07 03:40:43;;;;;;;54.22;39.35;;;7.60;99.90;;;;;;4982732;28;20610;-71
2022/05/07 03:43:10;;;;;;;56.30;40.20;;;7.70;99.90;;;;;;4974838;28;20118;-71
2022/05/07 03:45:37;;;;;;;56.17;38.85;;;7.70;99.90;;;;;;4979052;28;20049;-71
2022/05/07 03:48:04;;;;;;;54.90;38.85;;;7.70;99.90;;;;;;4978240;28;20057;-71
2022/05/07 03:50:31;;;;;;;58.53;38.05;;;7.60;99.90;;;;;;4977759;28;20038;-71
2022/05/07 03:55:45;;;;;;;55.30;36.60;;;7.50;99.90;;;;;;4978101;28;20054;-71
2022/05/07 03:58:21;;;;;;;50.58;36.38;;;7.50;99.90;;;;;;4964295;28;20269;-71
2022/05/07 04:00:48;;;;;;;47.47;35.85;;;7.50;99.90;;;;;;4994936;28;20053;-71
2022/05/07 04:03:15;;;;;;;47.03;36.10;;;7.50;99.90;;;;;;4974879;28;20074;-71
2022/05/07 04:05:50;;;;;;;51.85;38.22;;;7.70;99.90;;;;;;4962909;28;20053;-71
2022/05/07 04:08:19;;;;;;;49.28;37.20;;;7.80;99.90;;;;;;4962418;28;20340;-71
2022/05/07 04:10:46;;;;;;;60.35;39.90;;;7.70;99.90;;;;;;4978471;28;20042;-71
2022/05/07 04:13:17;;;;;;;57.20;39.33;;;7.90;99.90;;;;;;4976386;28;20050;-71
2022/05/07 04:15:49;;;;;;;52.67;37.72;;;7.90;99.90;;;;;;4976264;28;20045;-72
2022/05/07 04:18:16;;;;;;;56.90;39.63;;;7.80;99.90;;;;;;4977845;28;20058;-71
2022/05/07 04:20:44;;;;;;;54.50;38.85;;;8.00;99.90;;;;;;4975794;28;20057;-71
2022/05/07 04:23:15;;;;;;;48.53;36.60;;;8.10;99.90;;;;;;4977034;28;20410;-72
2022/05/07 04:25:45;;;;;;;50.80;37.83;;;8.10;99.90;;;;;;4981182;28;20136;-71
2022/05/07 04:28:15;;;;;;;43.58;36.90;;;8.00;99.90;;;;;;4982647;28;20049;-71
2022/05/07 04:30:45;;;;;;;48.67;37.85;;;8.00;99.90;;;;;;4994214;28;20132;-71
2022/05/07 04:33:16;;;;;;;50.10;38.63;;;8.00;99.90;;;;;;4975300;28;20057;-70
2022/05/07 04:35:43;;;;;;;53.17;39.28;;;8.20;99.90;;;;;;4976825;28;20573;-70
2022/05/07 04:38:10;;;;;;;45.83;38.20;;;8.30;99.90;;;;;;4978143;28;20487;-70
2022/05/07 04:40:38;;;;;;;48.80;39.10;;;8.40;99.90;;;;;;4994632;28;20088;-70
2022/05/07 04:43:06;;;;;;;58.55;40.50;;;8.30;99.90;;;;;;4974590;28;20054;-70
2022/05/07 04:45:34;;;;;;;55.58;42.42;;;8.40;99.90;;;;;;4977008;28;20477;-70
2022/05/07 04:48:07;;;;;;;55.90;40.43;;;8.40;99.90;;;;;;4976091;28;20234;-70
2022/05/07 04:50:35;;;;;;;58.35;41.53;;;8.50;99.90;;;;;;4975842;28;20046;-70
2022/05/07 04:53:16;;;;;;;57.80;42.42;;;8.40;99.90;;;;;;4977058;28;20077;-69
2022/05/07 04:55:44;;;;;;;54.75;39.97;;;8.40;99.90;;;;;;4976699;28;20061;-68
2022/05/07 04:58:12;;;;;;;50.33;36.95;;;8.40;99.90;;;;;;4962252;28;20102;-72
2022/05/07 05:00:40;;;;;;;53.80;38.90;;;8.60;99.90;;;;;;4976654;28;20608;-71
2022/05/07 05:03:20;;;;;;;52.22;36.42;;;8.80;99.90;;;;;;4993519;28;20053;-69
2022/05/07 05:06:04;;;;;;;51.65;37.67;;;8.90;99.90;;;;;;4978929;28;20527;-70
2022/05/07 05:08:52;;;;;;;50.03;36.42;;;9.00;99.90;;;;;;4976948;28;20057;-69
2022/05/07 05:11:20;;;;;;;51.50;37.13;;;9.10;99.90;;;;;;4981820;28;20133;-70
2022/05/07 05:13:48;;;;;;;48.95;38.03;;;9.30;99.90;;;;;;4985957;28;20068;-69
2022/05/07 05:16:15;;;;;;;52.53;39.47;;;9.30;99.90;;;;;;4976370;28;20042;-70
2022/05/07 05:18:45;;;;;;;48.75;38.97;;;9.40;99.90;;;;;;4976832;28;20521;-70
2022/05/07 05:21:16;;;;;;;46.47;38.50;;;9.40;99.90;;;;;;4973032;28;20524;-70
2022/05/07 05:23:52;;;;;;;44.67;36.53;;;9.50;99.90;;;;;;4981331;28;20147;-69
2022/05/07 05:26:19;;;;;;;53.63;41.78;;;9.60;99.90;;;;;;4979489;28;20141;-70
2022/05/07 05:28:51;;;;;;;49.10;39.95;;;9.80;99.90;;;;;;4976429;28;20103;-70
2022/05/07 05:31:19;;;;;;;50.10;39.10;;;9.80;99.90;;;;;;4963673;28;20064;-69
2022/05/07 05:33:54;;;;;;;;;;;9.70;99.90;;;;;;4992686;28;20441;-72
2022/05/07 05:36:32;;;;;;;47.72;37.38;;;9.70;99.90;;;;;;4974292;28;19929;-69
2022/05/07 05:39:00;;;;;;;46.35;36.90;;;9.80;99.90;;;;;;4979006;28;20493;-69
2022/05/07 05:41:29;;;;;;;44.72;36.63;;;9.90;99.90;;;;;;5010820;28;20460;-70
2022/05/07 05:43:57;;;;;;;45.67;37.60;;;10.10;99.90;;;;;;4975627;28;20211;-73
2022/05/07 05:46:25;;;;;;;46.42;36.95;;;10.40;99.90;;;;;;4974845;28;20454;-69
2022/05/07 05:48:52;;;;;;;43.20;36.00;;;10.70;99.90;;;;;;4975849;28;20081;-70
2022/05/07 05:51:19;;;;;;;43.20;36.08;;;10.70;99.90;;;;;;4973795;28;20042;-70
2022/05/07 05:53:48;;;;;;;42.63;35.30;;;10.90;99.90;;;;;;4975253;28;20486;-71
2022/05/07 05:56:16;;;;;;;40.30;33.45;;;11.10;99.90;;;;;;4975259;28;20322;-73
2022/05/07 05:58:47;;;;;;;42.38;35.40;;;11.30;99.90;;;;;;4976292;28;20041;-70
2022/05/07 06:01:18;;;;;;;39.42;34.38;;;11.50;99.90;;;;;;4974789;28;20535;-70
2022/05/07 06:04:12;;;;;;;40.78;35.65;;;11.70;99.90;;;;;;4974139;28;20057;-70
2022/05/07 06:06:38;;;;;;;39.40;35.45;;;11.90;99.90;;;;;;4993399;28;20137;-70
2022/05/07 06:09:06;;;;;;;40.25;36.08;;;12.30;99.90;;;;;;4980054;28;20044;-70
2022/05/07 06:11:33;;;;;;;40.33;36.15;;;12.60;99.90;;;;;;4976521;28;20041;-70
2022/05/07 06:14:01;;;;;;;42.42;36.85;;;13.00;99.90;;;;;;4974679;28;20690;-70
2022/05/07 06:16:29;;;;;;;42.67;38.28;;;13.40;99.90;;;;;;4974927;28;20129;-70
2022/05/07 06:18:59;;;;;;;39.63;35.58;;;13.80;99.90;;;;;;4975305;28;20386;-70
2022/05/07 06:21:28;;;;;;;41.10;37.28;;;14.20;99.90;;;;;;4974635;28;20438;-70
2022/05/07 06:23:55;;;;;;;40.22;36.22;;;14.50;99.90;;;;;;4958425;28;20741;-70
2022/05/07 06:29:12;;;;;;;39.88;36.10;;;15.20;99.90;;;;;;4974784;28;20049;-70
2022/05/07 06:31:41;;;;;;;40.78;36.67;;;15.50;99.90;;;;;;4957667;28;20045;-70
2022/05/07 06:34:10;;;;;;;43.17;38.97;;;15.60;99.90;;;;;;4971982;28;20100;-70
2022/05/07 06:36:43;;;;;;;40.05;36.22;;;16.00;99.90;;;;;;4976674;28;20046;-70
2022/05/07 06:39:10;;;;;;;40.58;36.63;;;16.10;99.90;;;;;;4976372;28;20073;-69
2022/05/07 06:41:36;;;;;;;40.72;37.03;;;16.50;99.90;;;;;;4964149;28;20049;-73
2022/05/07 06:44:06;;;;;;;41.30;37.13;;;16.80;99.90;;;;;;4978797;28;20439;-72
2022/05/07 06:46:33;;;;;;;41.67;37.80;;;17.10;99.90;;;;;;4963753;28;20569;-73
2022/05/07 06:49:06;;;;;;;43.15;39.20;;;17.40;99.90;;;;;;4978842;28;20046;-72
2022/05/07 06:51:51;;;;;;;42.10;38.08;;;17.40;99.90;;;;;;4980116;28;20060;-71
2022/05/07 06:54:18;;;;;;;43.40;39.55;;;17.60;99.90;;;;;;4979584;28;20707;-73
2022/05/07 06:56:45;;;;;;;45.35;41.35;;;17.70;99.90;;;;;;4997196;28;20112;-72
2022/05/07 06:59:11;;;;;;;43.15;39.13;;;17.70;99.90;;;;;;4980006;28;20120;-72
2022/05/07 07:01:39;;;;;;;44.88;40.58;;;17.80;99.90;;;;;;4975018;28;20049;-73
2022/05/07 07:04:06;;;;;;;43.50;39.67;;;17.80;99.90;;;;;;4960065;28;20057;-73
2022/05/07 07:06:33;;;;;;;44.40;40.05;;;17.80;99.90;;;;;;4986551;28;20045;-70
2022/05/07 07:09:00;;;;;;;46.08;42.08;;;17.90;99.90;;;;;;4978694;28;20062;-70
2022/05/07 07:11:26;;;;;;;44.83;41.03;;;18.10;99.90;;;;;;4995463;28;20324;-73
2022/05/07 07:13:53;;;;;;;46.58;42.15;;;18.10;99.90;;;;;;4996757;28;20077;-73
2022/05/07 07:16:20;;;;;;;46.72;42.67;;;18.00;99.90;;;;;;4994414;28;20614;-73
2022/05/07 07:18:48;;;;;;;47.63;43.42;;;17.90;99.90;;;;;;4968404;28;20051;-73
2022/05/07 07:21:16;;;;;;;49.25;44.45;;;17.80;99.90;;;;;;4963171;28;20135;-70
2022/05/07 07:23:43;;;;;;;47.30;42.90;;;18.00;99.90;;;;;;4996545;28;20116;-71
2022/05/07 07:26:09;;;;;;;48.05;43.63;;;18.20;99.90;;;;;;4991288;28;20604;-72
2022/05/07 07:28:36;;;;;;;46.60;42.53;;;18.40;99.90;;;;;;5000514;28;20041;-72
2022/05/07 07:31:03;;;;;;;45.53;41.55;;;18.50;99.90;;;;;;4980558;28;20540;-70
2022/05/07 07:33:30;;;;;;;46.85;42.42;;;18.50;99.90;;;;;;4979595;28;20057;-71
2022/05/07 07:35:57;;;;;;;47.10;42.78;;;18.50;99.90;;;;;;4994649;28;20053;-73
2022/05/07 07:38:26;;;;;;;46.08;42.20;;;18.50;99.90;;;;;;4995247;28;20049;-73
2022/05/07 07:40:56;;;;;;;47.88;43.25;;;18.50;99.90;;;;;;4993053;28;20252;-73
2022/05/07 07:43:23;;;;;;;47.63;43.35;;;18.90;99.90;;;;;;4977729;28;20160;-73
2022/05/07 07:48:35;;;;;;;45.22;41.22;;;19.40;99.90;;;;;;4975811;28;20345;-70
2022/05/07 07:51:03;;;;;;;45.60;41.45;;;19.60;99.90;;;;;;4975953;28;20050;-70
2022/05/07 07:53:30;;;;;;;43.88;40.03;;;19.70;99.90;;;;;;4992195;28;20393;-72
2022/05/07 07:55:56;;;;;;;47.72;43.38;;;19.70;99.90;;;;;;4974361;28;20128;-72
2022/05/07 07:58:23;;;;;;;45.03;41.33;;;19.90;99.90;;;;;;4994172;28;20104;-73
2022/05/07 08:00:51;;;;;;;46.75;42.38;;;20.00;99.90;;;;;;4998841;28;20049;-71
2022/05/07 08:03:19;;;;;;;44.70;40.90;;;20.40;99.90;;;;;;5008017;23;20167;-73
2022/05/07 08:05:49;;;;;;;44.92;40.95;;;20.80;99.90;;;;;;5031117;28;20066;-73
2022/05/07 08:13:48;;;;;;;;;;;21.00;99.90;;;;;;5008717;28;20261;-73
2022/05/07 08:16:19;;;;;;;43.83;39.88;;;20.70;99.90;;;;;;5005856;28;19939;-73
2022/05/07 08:18:46;;;;;;;43.40;39.33;;;20.60;99.90;;;;;;5003659;28;20061;-73
2022/05/07 08:21:13;;;;;;;45.30;41.53;;;20.50;99.90;;;;;;4985457;28;20104;-74
2022/05/07 08:23:41;;;;;;;43.58;39.55;;;20.50;99.90;;;;;;5006981;28;20050;-74
2022/05/07 08:26:08;;;;;;;46.60;42.30;;;20.60;99.90;;;;;;5002765;28;20278;-74
2022/05/07 08:28:36;;;;;;;44.92;40.83;;;20.60;99.90;;;;;;4997773;28;20145;-73
2022/05/07 08:31:04;;;;;;;44.55;40.47;;;20.80;99.90;;;;;;4997351;28;20053;-73
2022/05/07 08:33:31;;;;;;;44.90;40.75;;;20.80;99.90;;;;;;5004691;28;20643;-74
2022/05/07 08:35:58;;;;;;;49.60;44.92;;;20.70;99.90;;;;;;5001966;28;20138;-73
2022/05/07 08:38:25;;;;;;;47.38;43.08;;;20.60;99.90;;;;;;4999987;28;20272;-73
2022/05/07 08:40:53;;;;;;;51.17;46.20;;;20.70;99.90;;;;;;4999884;28;20049;-75
2022/05/07 08:43:20;;;;;;;51.00;45.97;;;20.50;99.90;;;;;;5007590;28;20046;-72
2022/05/07 08:45:46;;;;;;;49.20;44.50;;;20.40;99.90;;;;;;5015871;28;20536;-72
2022/05/07 08:48:13;;;;;;;49.55;44.92;;;20.40;99.90;;;;;;5002412;28;20848;-73
2022/05/07 08:50:41;;;;;;;51.55;46.33;;;20.30;99.90;;;;;;4985714;28;20073;-73
2022/05/07 08:53:09;;;;;;;51.53;46.63;;;20.30;99.90;;;;;;5003377;28;20140;-73
2022/05/07 08:55:36;;;;;;;51.15;46.55;;;20.20;99.90;;;;;;5002482;28;20499;-73
2022/05/07 08:58:03;;;;;;;51.15;46.53;;;20.10;99.90;;;;;;5003462;28;20053;-73
2022/05/07 09:00:30;;;;;;;53.40;48.22;;;20.20;99.90;;;;;;4981555;28;20093;-73
2022/05/07 09:02:59;;;;;;;52.67;47.83;;;20.10;99.90;;;;;;4973056;28;20572;-73
2022/05/07 09:05:36;;;;;;;54.85;49.35;;;20.00;99.90;;;;;;5002878;28;20173;-72
2022/05/07 09:08:04;;;;;;;51.42;46.58;;;20.10;99.90;;;;;;4985932;28;20049;-72
2022/05/07 09:10:37;;;;;;;51.80;46.78;;;20.10;99.90;;;;;;4993918;28;20058;-73
2022/05/07 09:13:15;;;;;;;55.42;49.92;;;20.50;99.90;;;;;;5006437;28;20053;-73
2022/05/07 09:15:51;;;;;;;52.50;47.42;;;20.60;99.90;;;;;;4995286;28;20051;-73
2022/05/07 09:18:20;;;;;;;51.25;46.42;;;20.90;99.90;;;;;;5005011;28;20069;-73
2022/05/07 09:21:19;;;;;;;53.00;47.90;;;21.00;99.90;;;;;;5003698;28;20096;-74
2022/05/07 09:23:56;;;;;;;53.83;48.95;;;21.00;99.90;;;;;;4993410;28;20076;-73
2022/05/07 09:26:27;;;;;;;54.80;49.60;;;21.00;99.90;;;;;;5015560;28;20068;-72
2022/05/07 09:28:55;;;;;;;54.67;49.20;;;20.90;99.90;;;;;;5020192;28;20448;-73
2022/05/07 09:31:29;;;;;;;54.38;49.58;;;21.20;99.90;;;;;;5001606;28;20062;-73
2022/05/07 09:35:47;;;;;;;52.83;47.85;;;21.20;99.90;;;;;;4996763;28;20107;-73
2022/05/07 09:36:46;;;;;;;52.35;47.53;;;21.30;99.90;;;;;;5002278;28;20238;-73
2022/05/07 09:39:14;;;;;;;53.55;49.00;;;21.40;99.90;;;;;;5001439;28;20088;-73
2022/05/07 09:41:43;;;;;;;49.92;45.83;;;21.50;99.90;;;;;;4993823;28;20685;-75
2022/05/07 09:44:11;;;;;;;52.38;47.95;;;21.20;99.90;;;;;;5010671;28;20504;-75
2022/05/07 09:46:41;;;;;;;53.38;48.60;;;21.50;99.90;;;;;;5021292;28;20128;-75
2022/05/07 09:49:08;;;;;;;53.45;48.47;;;21.60;99.90;;;;;;5022512;28;20124;-75
2022/05/07 09:51:35;;;;;;;50.75;46.25;;;21.00;99.90;;;;;;4974248;28;20038;-74
2022/05/07 09:59:33;;;;;;;;;;;22.00;99.90;;;;;;5003058;28;20099;-74
2022/05/07 10:02:21;;;;;;;45.75;42.05;;;22.10;99.90;;;;;;4994289;28;19921;-75
2022/05/07 10:04:51;;;;;;;46.38;42.65;;;22.30;99.90;;;;;;4982534;28;20105;-73
2022/05/07 10:08:00;;;;;;;43.78;40.08;;;22.30;99.90;;;;;;4975456;28;20046;-75
2022/05/07 10:10:30;;;;;;;46.30;42.70;;;21.90;99.90;;;;;;4993755;28;20038;-75
2022/05/07 10:13:00;;;;;;;46.20;42.30;;;22.00;99.90;;;;;;5003948;28;20045;-73
2022/05/07 10:15:28;;;;;;;42.83;39.22;;;22.00;99.90;;;;;;5018109;28;20095;-74
2022/05/07 10:18:14;;;;;;;41.33;37.95;;;22.10;99.90;;;;;;5025731;28;20045;-74
2022/05/07 10:20:44;;;;;;;42.63;39.33;;;22.40;99.90;;;;;;5024401;28;20100;-74
2022/05/07 10:23:12;;;;;;;44.33;40.85;;;22.60;99.90;;;;;;5022154;28;20054;-74
2022/05/07 10:25:54;;;;;;;41.70;38.40;;;22.60;99.90;;;;;;5004310;28;20050;-74
2022/05/07 10:28:21;;;;;;;42.67;39.20;;;22.70;99.90;;;;;;5006211;28;20081;-75
2022/05/07 10:30:49;;;;;;;43.50;40.00;;;22.50;99.90;;;;;;5004296;28;20131;-74
2022/05/07 10:33:18;;;;;;;44.03;40.50;;;22.30;99.90;;;;;;4995945;28;20504;-75
2022/05/07 10:35:53;;;;;;;41.25;37.70;;;22.30;99.90;;;;;;4999848;28;20097;-74
2022/05/07 10:38:28;;;;;;;41.30;38.10;;;22.50;99.90;;;;;;4999411;28;20050;-74
2022/05/07 10:40:58;;;;;;;43.22;38.70;;;22.30;99.90;;;;;;4982201;28;20042;-75
2022/05/07 10:43:38;;;;;;;41.30;38.28;;;22.50;99.90;;;;;;5003426;28;20058;-75
2022/05/07 10:46:06;;;;;;;39.70;36.45;;;22.70;99.90;;;;;;5005439;28;20504;-75
2022/05/07 10:49:01;;;;;;;43.42;40.17;;;22.90;99.90;;;;;;5002039;28;20140;-74
2022/05/07 10:51:32;;;;;;;44.63;41.03;;;23.10;99.90;;;;;;5004243;28;20104;-75
2022/05/07 10:54:02;;;;;;;43.60;39.88;;;23.00;99.90;;;;;;5004422;28;20053;-74
2022/05/07 10:56:34;;;;;;;39.35;36.17;;;22.20;99.90;;;;;;5000189;28;20076;-74
2022/05/07 10:59:01;;;;;;;32.50;30.17;;;22.20;99.90;;;;;;5002652;28;20046;-74
2022/05/07 11:01:29;;;;;;;34.67;32.05;;;22.20;99.90;;;;;;4997429;28;20523;-74
2022/05/07 11:04:07;;;;;;;35.67;33.08;;;22.00;99.90;;;;;;5000551;28;20084;-74
2022/05/07 11:06:40;;;;;;;39.35;36.50;;;21.60;99.90;;;;;;4980842;28;20038;-75
2022/05/07 11:09:17;;;;;;;37.20;34.25;;;21.70;99.90;;;;;;5004597;28;20045;-74
2022/05/07 11:11:49;;;;;;;37.88;35.08;;;22.10;99.90;;;;;;4992297;28;20564;-75
2022/05/07 11:14:24;;;;;;;39.28;36.13;;;22.10;99.90;;;;;;4997347;28;20291;-75
2022/05/07 11:16:55;;;;;;;38.35;35.40;;;22.20;99.90;;;;;;5006205;28;20082;-75
2022/05/07 11:19:30;;;;;;;36.45;33.67;;;22.10;99.90;;;;;;5001075;28;20046;-75
2022/05/07 11:21:59;;;;;;;34.20;32.10;;;22.50;99.90;;;;;;4985652;28;20084;-75
2022/05/07 11:24:27;;;;;;;34.38;31.95;;;22.70;99.90;;;;;;5014451;28;20081;-74
2022/05/07 11:27:01;;;;;;;38.17;35.33;;;22.60;99.90;;;;;;4982477;28;20137;-74
2022/05/07 11:29:28;;;;;;;38.35;35.55;;;22.50;99.90;;;;;;4999849;28;20119;-75
2022/05/07 11:32:00;;;;;;;34.03;31.20;;;22.70;99.90;;;;;;4998093;28;20798;-75
2022/05/07 11:34:32;;;;;;;37.47;34.40;;;22.50;99.90;;;;;;4984027;28;20081;-74
2022/05/07 11:37:16;;;;;;;39.95;36.90;;;22.60;99.90;;;;;;5005305;28;20060;-75
2022/05/07 11:39:53;;;;;;;39.45;36.42;;;22.60;99.90;;;;;;4998793;28;20334;-75
2022/05/07 11:42:29;;;;;;;39.63;36.42;;;22.70;99.90;;;;;;4986329;28;20038;-72
2022/05/07 11:45:29;;;;;;;;;;;22.60;99.90;;;;;;4999424;28;20060;-73
2022/05/07 11:48:06;;;;;;;38.95;36.13;;;22.70;99.90;;;;;;5008192;28;20007;-72
2022/05/07 11:50:41;;;;;;;38.20;35.47;;;22.60;99.90;;;;;;4998459;28;20457;-72
2022/05/07 11:53:15;;;;;;;39.08;36.58;;;22.70;99.90;;;;;;5001737;28;20052;-75
2022/05/07 11:55:43;;;;;;;40.40;37.50;;;22.80;99.90;;;;;;4998228;28;20721;-74
2022/05/07 11:58:16;;;;;;;37.95;35.35;;;22.80;99.90;;;;;;4983812;28;20109;-75
2022/05/07 12:00:46;;;;;;;39.25;36.25;;;22.80;99.90;;;;;;4993703;28;20043;-75
2022/05/07 12:03:23;;;;;;;38.53;35.72;;;22.90;99.90;;;;;;4981918;28;20045;-75
2022/05/07 12:05:51;;;;;;;41.17;38.28;;;22.90;99.90;;;;;;4986642;28;20441;-75
2022/05/07 12:08:23;;;;;;;36.42;33.88;;;22.80;99.90;;;;;;5003163;28;20547;-75
2022/05/07 12:10:52;;;;;;;38.53;35.72;;;22.80;99.90;;;;;;4993649;28;20129;-75
2022/05/07 12:13:20;;;;;;;37.33;34.67;;;22.90;99.90;;;;;;5008469;28;20048;-75
2022/05/07 12:18:41;;;;;;;39.30;36.35;;;22.90;99.90;;;;;;5005621;28;20724;-74
2022/05/07 12:21:08;;;;;;;37.28;34.63;;;23.10;99.90;;;;;;5021746;28;20563;-74
2022/05/07 12:31:55;;;;;;;38.45;35.75;;;22.70;99.90;;;;;;5001600;28;20527;-74
2022/05/07 12:34:30;;;;;;;39.53;36.63;;;22.90;99.90;;;;;;5000092;28;20419;-74
2022/05/07 12:36:57;;;;;;;41.22;38.13;;;23.00;99.90;;;;;;5000841;28;20099;-74
2022/05/07 12:39:24;;;;;;;38.90;36.25;;;23.00;99.90;;;;;;5000251;28;20069;-74
2022/05/07 12:41:51;;;;;;;38.95;36.35;;;23.20;99.90;;;;;;4977089;28;20104;-74
2022/05/07 12:44:18;;;;;;;37.75;35.00;;;23.30;99.90;;;;;;5011813;28;20085;-73
2022/05/07 12:46:45;;;;;;;38.40;35.78;;;23.40;99.90;;;;;;5005383;28;20123;-73
2022/05/07 12:49:11;;;;;;;38.50;35.55;;;23.50;99.90;;;;;;4997207;28;20050;-73
2022/05/07 12:51:38;;;;;;;39.45;36.95;;;23.70;99.90;;;;;;5003285;28;20575;-72
2022/05/07 12:54:06;;;;;;;39.72;36.97;;;23.50;98.70;;;;;;5003665;28;20488;-74
2022/05/07 12:56:34;;;;;;;38.10;35.78;;;23.20;99.00;;;;;;5021976;28;20053;-72
2022/05/07 12:59:00;;;;;;;38.38;35.97;;;23.50;99.80;;;;;;5004810;28;20465;-73
2022/05/07 13:01:27;;;;;;;39.17;36.35;;;23.70;99.90;;;;;;4978963;28;20045;-73
2022/05/07 13:03:54;;;;;;;34.65;32.25;;;23.80;99.90;;;;;;5001412;28;20063;-72
2022/05/07 13:06:23;;;;;;;40.80;38.03;;;23.90;99.20;;;;;;5002813;28;20129;-74
2022/05/07 13:08:51;;;;;;;38.90;36.15;;;23.70;99.40;;;;;;5005399;28;20045;-75
2022/05/07 13:11:18;;;;;;;39.53;36.65;;;23.60;99.90;;;;;;4992094;28;20085;-74
2022/05/07 13:13:45;;;;;;;39.30;36.88;;;23.70;99.90;;;;;;5010292;28;20080;-74
2022/05/07 13:16:13;;;;;;;41.80;38.88;;;23.70;99.90;;;;;;4983313;28;20454;-75
2022/05/07 13:18:40;;;;;;;38.45;35.92;;;23.90;99.60;;;;;;4983297;28;20065;-74
2022/05/07 13:21:07;;;;;;;38.13;35.75;;;23.90;98.90;;;;;;4981829;28;20070;-74
2022/05/07 13:23:34;;;;;;;36.53;33.80;;;23.70;99.90;;;;;;4995323;28;20037;-74
2022/05/07 13:26:01;;;;;;;37.78;35.15;;;23.60;99.90;;;;;;4983875;28;20695;-74